Francisco Madero, Argentina
Current Conditions -  °F | °C
As of 7:00 PM on Tuesday 25 Nov 2014 (Local Time) from SAOC Reporting Station
Clear Clear  
Wind Chill: 77°   Ceiling: Unl
Heat Index: 78°   Visibility: 6mi
Dew Point: 45°   Wind: 18mph
Humidity: 32%   Direction: 50°NE
Pressure: 29.83"   Gusts: NA
Location:  35.86°S, 62.3°W
Report Text: SAOC 252200Z 05016KT CAVOK 25/07 Q1010
Loading
Personal Weather Stations






























Interactive Weather Map New forecast layout! Learn more

10-Day Weather Forecast

Advertisements
Track Severe Weather on mobile